Terminal Aerodrome Forecast
Issued by NWS

Home | Current Version | Previous Version | Text Only | Print | Product List | Glossary On
Versions: 1 2 3 4 5 6 7 8 9 10 11 12 13 14 15 16 17 18 19
000
FTUS43 KDLH 291300 AAB
TAFHIB
TAF AMD
KHIB 291348Z 2914/3012 20005KT 3SM -SN BR OVC012 WS020/24040KT
     FM291500 23008KT 5SM -SNRA OVC006
     FM291800 33018G32KT P6SM SCT012 OVC035
     FM300000 30015KT P6SM BKN035=

USA.gov is the U.S. government's official web portal to all federal, state and local government web resources and services.